Time;durP1;ratioP1;P1;durP2;ratioP2;P2;SDS_P1;SDS_P2;PMS_P1;PMS_P2;Temp;Humidity;BMP_temperature;BMP_pressure;BME280_temperature;BME280_humidity;BME280_pressure;Samples;Min_cycle;Max_cycle;Signal;HPM_P1;HPM_P2
2021/08/23 00:00:53;;;;;;;3.43;3.20;;;;;;;;;;4949458;29;24477;-61
2021/08/23 00:03:18;;;;;;;4.35;4.05;;;;;;;;;;4953497;28;24416;-62
2021/08/23 00:05:44;;;;;;;3.50;3.30;;;;;;;;;;4968535;28;24795;-62
2021/08/23 00:08:09;;;;;;;4.20;3.90;;;;;;;;;;4968475;28;24429;-62
2021/08/23 00:10:34;;;;;;;4.33;4.03;;;;;;;;;;4968042;28;24393;-62
2021/08/23 00:12:59;;;;;;;3.60;3.40;;;;;;;;;;4968244;28;24401;-62
2021/08/23 00:15:24;;;;;;;3.80;3.50;;;;;;;;;;4968377;28;24424;-62
2021/08/23 00:17:49;;;;;;;3.60;3.30;;;;;;;;;;4968291;28;24413;-62
2021/08/23 00:20:16;;;;;;;4.13;3.83;;;;;;;;;;4967991;28;24388;-62
2021/08/23 00:22:48;;;;;;;4.40;4.07;;;;;;;;;;4968345;28;24397;-63
2021/08/23 00:25:14;;;;;;;3.60;3.30;;;;;;;;;;4968202;28;24993;-62
2021/08/23 00:27:39;;;;;;;3.70;3.40;;;;;;;;;;4968332;28;24928;-63
2021/08/23 00:30:07;;;;;;;3.40;3.20;;;;;;;;;;4968194;28;24995;-62
2021/08/23 00:32:32;;;;;;;3.60;3.40;;;;;;;;;;4967472;28;24386;-62
2021/08/23 00:34:57;;;;;;;4.30;3.90;;;;;;;;;;4967604;28;24424;-62
2021/08/23 00:37:23;;;;;;;3.95;3.65;;;;;;;;;;4968160;28;24962;-62
2021/08/23 00:39:48;;;;;;;3.80;3.50;;;;;;;;;;4968044;28;24401;-63
2021/08/23 00:42:13;;;;;;;4.00;3.70;;;;;;;;;;4968346;28;24388;-62
2021/08/23 00:44:40;;;;;;;4.10;3.80;;;;;;;;;;4967776;28;24437;-63
2021/08/23 00:47:06;;;;;;;4.60;4.27;;;;;;;;;;4967877;28;25345;-63
2021/08/23 00:49:32;;;;;;;3.35;3.10;;;;;;;;;;4967608;28;24394;-63
2021/08/23 00:51:58;;;;;;;4.10;3.80;;;;;;;;;;4968201;28;24812;-61
2021/08/23 00:54:23;;;;;;;3.60;3.30;;;;;;;;;;4967761;28;24413;-61
2021/08/23 00:56:49;;;;;;;4.50;4.10;;;;;;;;;;4967736;28;24461;-61
2021/08/23 00:59:14;;;;;;;4.30;3.90;;;;;;;;;;4968119;28;24425;-64
2021/08/23 01:01:53;;;;;;;3.78;3.47;;;;;;;;;;4967870;28;24456;-62
2021/08/23 01:04:21;;;;;;;4.20;3.80;;;;;;;;;;4950490;28;24470;-62
2021/08/23 01:06:47;;;;;;;4.00;3.70;;;;;;;;;;4967835;28;24830;-62
2021/08/23 01:09:13;;;;;;;3.70;3.30;;;;;;;;;;4967899;28;24480;-62
2021/08/23 01:11:44;;;;;;;4.18;3.88;;;;;;;;;;4967686;28;24757;-63
2021/08/23 01:14:09;;;;;;;4.53;4.13;;;;;;;;;;4967935;28;24503;-63
2021/08/23 01:16:34;;;;;;;3.72;3.50;;;;;;;;;;4967412;28;24485;-63
2021/08/23 01:19:00;;;;;;;4.05;3.75;;;;;;;;;;4967820;28;24798;-62
2021/08/23 01:21:26;;;;;;;3.80;3.50;;;;;;;;;;4967702;28;24389;-63
2021/08/23 01:23:52;;;;;;;3.80;3.50;;;;;;;;;;4964263;28;24386;-62
2021/08/23 01:26:21;;;;;;;4.03;3.73;;;;;;;;;;4967588;28;24457;-63
2021/08/23 01:28:46;;;;;;;4.07;3.78;;;;;;;;;;4967738;28;24994;-62
2021/08/23 01:31:14;;;;;;;4.23;3.90;;;;;;;;;;4967696;28;24389;-62
2021/08/23 01:33:40;;;;;;;4.10;3.80;;;;;;;;;;4967119;28;24392;-63
2021/08/23 01:36:05;;;;;;;3.95;3.65;;;;;;;;;;4967717;28;24722;-62
2021/08/23 01:38:30;;;;;;;3.83;3.53;;;;;;;;;;4967615;28;24446;-62
2021/08/23 01:41:04;;;;;;;3.83;3.53;;;;;;;;;;4954460;28;24460;-63
2021/08/23 01:43:29;;;;;;;3.40;3.20;;;;;;;;;;4948279;29;24740;-62
2021/08/23 01:45:54;;;;;;;3.90;3.60;;;;;;;;;;4950853;28;24403;-63
2021/08/23 01:48:19;;;;;;;4.40;4.00;;;;;;;;;;4951493;29;24612;-62
2021/08/23 01:50:44;;;;;;;4.10;3.80;;;;;;;;;;4951629;29;24410;-62
2021/08/23 01:53:09;;;;;;;3.90;3.60;;;;;;;;;;4951558;29;24476;-62
2021/08/23 01:55:35;;;;;;;5.32;4.88;;;;;;;;;;4951317;29;24468;-62
2021/08/23 01:58:02;;;;;;;4.82;4.47;;;;;;;;;;4951933;29;24560;-62
2021/08/23 02:00:27;;;;;;;5.60;5.20;;;;;;;;;;4951226;29;24461;-62
2021/08/23 02:02:52;;;;;;;4.70;4.40;;;;;;;;;;4951598;29;24400;-62
2021/08/23 02:05:17;;;;;;;4.37;4.07;;;;;;;;;;4951326;29;24745;-62
2021/08/23 02:07:42;;;;;;;4.60;4.30;;;;;;;;;;4951592;29;24394;-62
2021/08/23 02:10:08;;;;;;;5.07;4.68;;;;;;;;;;4951195;29;24408;-62
2021/08/23 02:12:33;;;;;;;6.03;5.53;;;;;;;;;;4951221;29;24441;-62
2021/08/23 02:14:58;;;;;;;6.30;5.80;;;;;;;;;;4951215;29;24513;-62
2021/08/23 02:17:23;;;;;;;5.53;5.13;;;;;;;;;;4951035;29;24450;-62
2021/08/23 02:19:48;;;;;;;6.60;6.10;;;;;;;;;;4951256;29;24695;-62
2021/08/23 02:22:14;;;;;;;5.90;5.50;;;;;;;;;;4951415;29;24809;-62
2021/08/23 02:24:39;;;;;;;5.50;5.10;;;;;;;;;;4950822;29;24449;-62
2021/08/23 02:27:04;;;;;;;6.20;5.80;;;;;;;;;;4951124;29;25170;-62
2021/08/23 02:29:29;;;;;;;8.10;7.45;;;;;;;;;;4951016;29;24497;-62
2021/08/23 02:31:54;;;;;;;7.07;6.57;;;;;;;;;;4950826;29;24457;-62
2021/08/23 02:34:19;;;;;;;7.13;6.55;;;;;;;;;;4950657;29;24481;-61
2021/08/23 02:36:45;;;;;;;9.05;8.43;;;;;;;;;;4951029;29;24406;-61
2021/08/23 02:39:10;;;;;;;8.00;7.40;;;;;;;;;;4950753;29;24477;-62
2021/08/23 02:41:35;;;;;;;7.40;6.87;;;;;;;;;;4968984;28;25152;-62
2021/08/23 02:44:00;;;;;;;8.00;7.40;;;;;;;;;;4970277;28;24486;-62
2021/08/23 02:46:26;;;;;;;7.70;7.10;;;;;;;;;;4969836;28;24398;-62
2021/08/23 02:48:51;;;;;;;8.70;8.05;;;;;;;;;;4969602;28;25016;-62
2021/08/23 02:51:16;;;;;;;8.27;7.67;;;;;;;;;;4970139;28;24471;-63
2021/08/23 02:53:41;;;;;;;7.47;6.97;;;;;;;;;;4969725;28;24405;-63
2021/08/23 02:56:06;;;;;;;7.57;7.07;;;;;;;;;;4968875;28;24532;-62
2021/08/23 02:58:32;;;;;;;7.80;7.20;;;;;;;;;;4969815;28;24397;-63
2021/08/23 03:00:57;;;;;;;6.40;6.00;;;;;;;;;;4969814;28;24394;-63
2021/08/23 03:03:24;;;;;;;6.85;6.35;;;;;;;;;;4968840;28;24461;-63
2021/08/23 03:05:49;;;;;;;9.70;8.90;;;;;;;;;;4969370;28;24799;-62
2021/08/23 03:08:14;;;;;;;7.73;7.13;;;;;;;;;;4969911;28;24393;-62
2021/08/23 03:10:39;;;;;;;5.93;5.53;;;;;;;;;;4969390;28;24476;-63
2021/08/23 03:13:05;;;;;;;5.97;5.50;;;;;;;;;;4969326;28;24433;-62
2021/08/23 03:15:30;;;;;;;6.20;5.80;;;;;;;;;;4969261;28;24453;-63
2021/08/23 03:17:55;;;;;;;5.90;5.50;;;;;;;;;;4969386;28;24408;-63
2021/08/23 03:20:20;;;;;;;5.90;5.50;;;;;;;;;;4969388;28;24784;-63
2021/08/23 03:22:46;;;;;;;6.13;5.73;;;;;;;;;;4969710;28;24401;-63
2021/08/23 03:25:11;;;;;;;6.00;5.60;;;;;;;;;;4969306;28;24473;-63
2021/08/23 03:27:36;;;;;;;5.47;5.07;;;;;;;;;;4969108;28;24394;-62
2021/08/23 03:30:01;;;;;;;5.80;5.40;;;;;;;;;;4969314;28;24481;-62
2021/08/23 03:32:26;;;;;;;5.47;5.07;;;;;;;;;;4969137;28;25041;-62
2021/08/23 03:34:52;;;;;;;4.80;4.50;;;;;;;;;;4968910;28;24425;-62
2021/08/23 03:37:17;;;;;;;5.10;4.80;;;;;;;;;;4969214;28;24384;-62
2021/08/23 03:39:42;;;;;;;5.50;5.10;;;;;;;;;;4965675;28;24951;-62
2021/08/23 03:42:07;;;;;;;5.77;5.37;;;;;;;;;;4949597;29;24397;-62
2021/08/23 03:44:32;;;;;;;5.70;5.30;;;;;;;;;;4949408;29;24405;-62
2021/08/23 03:46:57;;;;;;;5.10;4.80;;;;;;;;;;4949506;28;24413;-61
2021/08/23 03:49:23;;;;;;;4.90;4.60;;;;;;;;;;4949583;29;24418;-61
2021/08/23 03:51:48;;;;;;;5.15;4.75;;;;;;;;;;4949635;29;24402;-61
2021/08/23 03:54:13;;;;;;;5.07;4.67;;;;;;;;;;4949668;29;25317;-61
2021/08/23 03:56:39;;;;;;;4.93;4.53;;;;;;;;;;4949250;29;24955;-62
2021/08/23 03:59:04;;;;;;;4.80;4.50;;;;;;;;;;4949179;29;24390;-62
2021/08/23 04:01:30;;;;;;;4.90;4.60;;;;;;;;;;4949655;29;24390;-62
2021/08/23 04:03:55;;;;;;;4.40;4.10;;;;;;;;;;4949226;29;24429;-62
2021/08/23 04:06:20;;;;;;;4.20;3.90;;;;;;;;;;4949362;29;24950;-62
2021/08/23 04:08:45;;;;;;;4.28;3.97;;;;;;;;;;4949193;28;24425;-62
2021/08/23 04:11:12;;;;;;;4.10;3.80;;;;;;;;;;4949295;29;24394;-62
2021/08/23 04:13:38;;;;;;;3.60;3.40;;;;;;;;;;4948962;29;25030;-62
2021/08/23 04:16:03;;;;;;;4.20;3.90;;;;;;;;;;4949004;29;24437;-62
2021/08/23 04:18:28;;;;;;;4.30;4.00;;;;;;;;;;4949238;29;24898;-62
2021/08/23 04:20:53;;;;;;;3.30;3.10;;;;;;;;;;4949044;29;24884;-62
2021/08/23 04:23:18;;;;;;;3.50;3.30;;;;;;;;;;4949315;29;24399;-62
2021/08/23 04:25:44;;;;;;;3.58;3.38;;;;;;;;;;4948947;29;24473;-62
2021/08/23 04:28:09;;;;;;;3.50;3.30;;;;;;;;;;4948947;29;24999;-61
2021/08/23 04:30:34;;;;;;;3.20;3.00;;;;;;;;;;4948826;29;24444;-61
2021/08/23 04:32:59;;;;;;;3.47;3.28;;;;;;;;;;4949336;29;24553;-61
2021/08/23 04:35:24;;;;;;;3.40;3.20;;;;;;;;;;4948765;29;24936;-61
2021/08/23 04:37:49;;;;;;;2.97;2.78;;;;;;;;;;4949095;29;24402;-61
2021/08/23 04:40:14;;;;;;;2.90;2.70;;;;;;;;;;4957357;28;24537;-61
2021/08/23 04:42:40;;;;;;;2.77;2.60;;;;;;;;;;4968065;28;24967;-61
2021/08/23 04:45:05;;;;;;;2.77;2.60;;;;;;;;;;4968042;28;24469;-62
2021/08/23 04:47:30;;;;;;;3.10;2.90;;;;;;;;;;4950994;28;24856;-62
2021/08/23 04:49:55;;;;;;;2.70;2.50;;;;;;;;;;4967651;28;24920;-62
2021/08/23 04:52:22;;;;;;;2.65;2.55;;;;;;;;;;4968228;28;24543;-63
2021/08/23 04:54:47;;;;;;;2.85;2.65;;;;;;;;;;4968211;28;24413;-62
2021/08/23 04:57:12;;;;;;;3.10;2.90;;;;;;;;;;4968040;28;24439;-62
2021/08/23 04:59:37;;;;;;;2.50;2.40;;;;;;;;;;4967479;28;24392;-62
2021/08/23 05:02:03;;;;;;;2.60;2.40;;;;;;;;;;4968374;28;24394;-62
2021/08/23 05:04:28;;;;;;;3.10;2.90;;;;;;;;;;4967976;28;24389;-61
2021/08/23 05:06:53;;;;;;;2.80;2.60;;;;;;;;;;4967895;28;24405;-61
2021/08/23 05:09:18;;;;;;;2.70;2.50;;;;;;;;;;4968122;28;24989;-61
2021/08/23 05:11:44;;;;;;;2.50;2.40;;;;;;;;;;4967519;28;24417;-62
2021/08/23 05:14:09;;;;;;;2.67;2.47;;;;;;;;;;4967529;28;24698;-62
2021/08/23 05:16:34;;;;;;;2.53;2.40;;;;;;;;;;4967679;28;24961;-61
2021/08/23 05:19:00;;;;;;;2.60;2.40;;;;;;;;;;4965761;28;24381;-62
2021/08/23 05:21:25;;;;;;;2.40;2.20;;;;;;;;;;4940974;29;24430;-61
2021/08/23 05:23:50;;;;;;;3.10;2.90;;;;;;;;;;4944246;29;24474;-62
2021/08/23 05:26:15;;;;;;;2.40;2.30;;;;;;;;;;4947114;29;24457;-61
2021/08/23 05:28:40;;;;;;;2.97;2.77;;;;;;;;;;4951828;29;24927;-60
2021/08/23 05:31:05;;;;;;;2.40;2.25;;;;;;;;;;4952138;29;24523;-63
2021/08/23 05:33:31;;;;;;;2.70;2.50;;;;;;;;;;4950515;29;24441;-62
2021/08/23 05:35:56;;;;;;;2.70;2.50;;;;;;;;;;4949966;29;24434;-62
2021/08/23 05:38:21;;;;;;;2.50;2.40;;;;;;;;;;4941635;28;24472;-61
2021/08/23 05:40:46;;;;;;;2.77;2.57;;;;;;;;;;4934787;29;24415;-61
2021/08/23 05:43:12;;;;;;;3.20;3.00;;;;;;;;;;4950030;29;24461;-62
2021/08/23 05:45:37;;;;;;;2.70;2.50;;;;;;;;;;4949794;28;24432;-63
2021/08/23 05:48:02;;;;;;;2.47;2.30;;;;;;;;;;4950543;29;24441;-62
2021/08/23 05:50:27;;;;;;;3.00;2.80;;;;;;;;;;4950836;29;24468;-62
2021/08/23 05:52:52;;;;;;;2.80;2.60;;;;;;;;;;4948362;29;24801;-63
2021/08/23 05:55:17;;;;;;;2.90;2.70;;;;;;;;;;4947360;29;24514;-62
2021/08/23 05:57:43;;;;;;;2.63;2.43;;;;;;;;;;4948072;29;24422;-62
2021/08/23 06:00:09;;;;;;;2.47;2.37;;;;;;;;;;4947244;29;24428;-62
2021/08/23 06:02:34;;;;;;;2.60;2.50;;;;;;;;;;4949122;29;24829;-62
2021/08/23 06:04:59;;;;;;;3.00;2.80;;;;;;;;;;4947495;29;24414;-63
2021/08/23 06:07:24;;;;;;;2.30;2.20;;;;;;;;;;4948557;29;25280;-63
2021/08/23 06:09:50;;;;;;;2.27;2.17;;;;;;;;;;4947436;29;24426;-63
2021/08/23 06:12:24;;;;;;;2.70;2.50;;;;;;;;;;4944328;29;25130;-64
2021/08/23 06:14:49;;;;;;;2.70;2.50;;;;;;;;;;4946766;28;24987;-64
2021/08/23 06:17:15;;;;;;;2.60;2.40;;;;;;;;;;4946782;29;24460;-63
2021/08/23 06:19:40;;;;;;;2.95;2.75;;;;;;;;;;4948412;29;24464;-64
2021/08/23 06:22:05;;;;;;;2.50;2.40;;;;;;;;;;4931508;29;24462;-62
2021/08/23 06:24:30;;;;;;;2.40;2.30;;;;;;;;;;4942040;29;24816;-63
2021/08/23 06:26:55;;;;;;;2.13;2.03;;;;;;;;;;4934384;29;24497;-62
2021/08/23 06:29:20;;;;;;;2.60;2.50;;;;;;;;;;4941851;29;24994;-62
2021/08/23 06:31:46;;;;;;;2.80;2.60;;;;;;;;;;4937820;29;24785;-62
2021/08/23 06:34:11;;;;;;;2.45;2.35;;;;;;;;;;4943983;29;24481;-63
2021/08/23 06:36:36;;;;;;;2.80;2.60;;;;;;;;;;4937039;28;24453;-64
2021/08/23 06:39:02;;;;;;;2.50;2.40;;;;;;;;;;4947298;28;24420;-64
2021/08/23 06:41:28;;;;;;;2.80;2.60;;;;;;;;;;4948207;29;24490;-63
2021/08/23 06:43:53;;;;;;;2.40;2.30;;;;;;;;;;4947363;29;24421;-62
2021/08/23 06:46:18;;;;;;;2.30;2.20;;;;;;;;;;4937281;29;24415;-62
2021/08/23 06:48:44;;;;;;;1.83;1.73;;;;;;;;;;4947097;29;24991;-62
2021/08/23 06:51:09;;;;;;;2.00;1.90;;;;;;;;;;4940972;29;24469;-62
2021/08/23 06:53:34;;;;;;;2.17;2.07;;;;;;;;;;4946881;29;24934;-64
2021/08/23 06:55:59;;;;;;;2.00;1.90;;;;;;;;;;4946043;29;24462;-65
2021/08/23 06:58:24;;;;;;;1.60;1.50;;;;;;;;;;4947660;29;24412;-64
2021/08/23 07:00:50;;;;;;;1.75;1.65;;;;;;;;;;4947386;29;24469;-64
2021/08/23 07:03:15;;;;;;;1.80;1.70;;;;;;;;;;4947342;28;25011;-65
2021/08/23 07:05:40;;;;;;;1.57;1.47;;;;;;;;;;4944509;28;24410;-65
2021/08/23 07:08:05;;;;;;;1.33;1.30;;;;;;;;;;4933070;29;24849;-65
2021/08/23 07:10:30;;;;;;;1.80;1.70;;;;;;;;;;4936749;29;24772;-64
2021/08/23 07:12:55;;;;;;;1.60;1.50;;;;;;;;;;4949417;29;25190;-64
2021/08/23 07:15:21;;;;;;;1.50;1.40;;;;;;;;;;4950218;29;24418;-64
2021/08/23 07:17:46;;;;;;;1.17;1.10;;;;;;;;;;4950115;29;24421;-64
2021/08/23 07:20:11;;;;;;;1.05;1.00;;;;;;;;;;4950130;29;24534;-62
2021/08/23 07:22:37;;;;;;;1.60;1.10;;;;;;;;;;4949576;29;24483;-62
2021/08/23 07:25:03;;;;;;;0.95;0.95;;;;;;;;;;4950182;29;24492;-62
2021/08/23 07:27:28;;;;;;;0.93;0.93;;;;;;;;;;4949720;29;24472;-62
2021/08/23 07:29:53;;;;;;;0.90;0.90;;;;;;;;;;4948768;29;24805;-62
2021/08/23 07:32:18;;;;;;;0.80;0.80;;;;;;;;;;4950317;29;24489;-63
2021/08/23 07:34:44;;;;;;;1.00;1.00;;;;;;;;;;4949788;29;24405;-62
2021/08/23 07:37:13;;;;;;;1.30;1.20;;;;;;;;;;4965941;28;24405;-62
2021/08/23 07:39:38;;;;;;;0.80;0.70;;;;;;;;;;4960974;28;24445;-62
2021/08/23 07:42:03;;;;;;;0.80;0.80;;;;;;;;;;4949192;28;24422;-62
2021/08/23 07:44:28;;;;;;;0.70;0.70;;;;;;;;;;4949545;29;24405;-63
2021/08/23 07:46:54;;;;;;;0.80;0.80;;;;;;;;;;4949012;28;24400;-62
2021/08/23 07:49:19;;;;;;;1.10;1.00;;;;;;;;;;4949798;29;24405;-63
2021/08/23 07:51:44;;;;;;;0.80;0.80;;;;;;;;;;4949055;29;24413;-63
2021/08/23 07:54:09;;;;;;;0.80;0.80;;;;;;;;;;4948867;29;25042;-63
2021/08/23 07:56:34;;;;;;;0.80;0.80;;;;;;;;;;4949782;29;24936;-63
2021/08/23 07:58:59;;;;;;;1.30;0.70;;;;;;;;;;4949120;29;24401;-63
2021/08/23 08:01:25;;;;;;;0.80;0.80;;;;;;;;;;4948938;29;24995;-63
2021/08/23 08:03:50;;;;;;;0.70;0.70;;;;;;;;;;4949222;29;24402;-63
2021/08/23 08:06:16;;;;;;;0.90;0.90;;;;;;;;;;4949124;29;24430;-62
2021/08/23 08:08:42;;;;;;;1.30;0.90;;;;;;;;;;4949341;29;24422;-63
2021/08/23 08:11:07;;;;;;;0.70;0.70;;;;;;;;;;4948863;29;24394;-63
2021/08/23 08:13:32;;;;;;;0.80;0.80;;;;;;;;;;4948367;29;25088;-62
2021/08/23 08:15:58;;;;;;;1.08;0.98;;;;;;;;;;4948564;29;24429;-62
2021/08/23 08:18:23;;;;;;;0.90;0.90;;;;;;;;;;4949203;29;25010;-63
2021/08/23 08:20:48;;;;;;;0.80;0.80;;;;;;;;;;4949231;29;24394;-63
2021/08/23 08:23:13;;;;;;;0.90;0.90;;;;;;;;;;4948972;29;24397;-63
2021/08/23 08:25:39;;;;;;;0.70;0.70;;;;;;;;;;4948070;29;24979;-63
2021/08/23 08:28:05;;;;;;;0.88;0.88;;;;;;;;;;4947812;29;24422;-62
2021/08/23 08:30:31;;;;;;;0.80;0.80;;;;;;;;;;4947728;28;24944;-63
2021/08/23 08:32:56;;;;;;;1.00;1.00;;;;;;;;;;4949072;29;24417;-62
2021/08/23 08:35:22;;;;;;;1.00;0.90;;;;;;;;;;4960743;28;24426;-64
2021/08/23 08:37:47;;;;;;;0.90;0.90;;;;;;;;;;4968092;28;24534;-65
2021/08/23 08:40:12;;;;;;;1.00;1.00;;;;;;;;;;4954336;28;25117;-63
2021/08/23 08:42:39;;;;;;;1.40;1.30;;;;;;;;;;4948690;29;24401;-62
2021/08/23 08:45:04;;;;;;;1.30;1.20;;;;;;;;;;4948751;29;25322;-63
2021/08/23 08:47:30;;;;;;;1.70;1.60;;;;;;;;;;4948444;28;24430;-63
2021/08/23 08:49:57;;;;;;;1.80;1.70;;;;;;;;;;4948290;29;24436;-65
2021/08/23 08:52:22;;;;;;;1.80;1.70;;;;;;;;;;4948877;29;24447;-66
2021/08/23 08:54:47;;;;;;;2.13;2.03;;;;;;;;;;4949833;28;25060;-65
2021/08/23 08:57:13;;;;;;;2.87;2.60;;;;;;;;;;4952381;29;24398;-65
2021/08/23 08:59:38;;;;;;;3.00;2.80;;;;;;;;;;4951885;29;24397;-62
2021/08/23 09:02:03;;;;;;;2.63;2.42;;;;;;;;;;4952395;29;24466;-62
2021/08/23 09:04:30;;;;;;;2.47;2.28;;;;;;;;;;4952484;29;24936;-63
2021/08/23 09:06:57;;;;;;;2.70;2.50;;;;;;;;;;4952516;29;24428;-62
2021/08/23 09:09:22;;;;;;;3.10;2.80;;;;;;;;;;4952534;29;24382;-62
2021/08/23 09:11:55;;;;;;;2.45;2.35;;;;;;;;;;4951741;29;24517;-61
2021/08/23 09:14:20;;;;;;;3.50;3.30;;;;;;;;;;4952249;29;24936;-62
2021/08/23 09:16:45;;;;;;;2.57;2.47;;;;;;;;;;4952043;29;24421;-62
2021/08/23 09:19:21;;;;;;;2.23;2.13;;;;;;;;;;4952144;29;24399;-62
2021/08/23 09:21:46;;;;;;;1.85;1.75;;;;;;;;;;4951338;29;24418;-62
2021/08/23 09:24:18;;;;;;;2.20;2.10;;;;;;;;;;4951875;29;24394;-61
2021/08/23 09:26:44;;;;;;;2.50;2.05;;;;;;;;;;4952263;29;24405;-62
2021/08/23 09:29:09;;;;;;;2.00;1.90;;;;;;;;;;4951574;29;24406;-62
2021/08/23 09:31:36;;;;;;;1.87;1.77;;;;;;;;;;4951765;29;24417;-62
2021/08/23 09:34:03;;;;;;;2.17;2.08;;;;;;;;;;4964449;28;24447;-62
2021/08/23 09:36:28;;;;;;;2.20;2.00;;;;;;;;;;4971112;28;24820;-62
2021/08/23 09:39:12;;;;;;;2.33;2.22;;;;;;;;;;4952493;28;24414;-62
2021/08/23 09:41:40;;;;;;;2.50;2.40;;;;;;;;;;4949782;29;24425;-61
2021/08/23 09:44:12;;;;;;;2.30;2.20;;;;;;;;;;4942598;29;24469;-65
2021/08/23 09:46:38;;;;;;;2.70;2.60;;;;;;;;;;4941637;28;24430;-64
2021/08/23 09:49:05;;;;;;;3.08;2.88;;;;;;;;;;4951385;29;24460;-63
2021/08/23 09:51:32;;;;;;;4.00;3.60;;;;;;;;;;4950727;29;24399;-64
2021/08/23 09:54:07;;;;;;;2.90;2.80;;;;;;;;;;4946518;29;24410;-64
2021/08/23 09:56:33;;;;;;;3.30;3.10;;;;;;;;;;4937533;29;24978;-64
2021/08/23 09:58:59;;;;;;;3.83;3.55;;;;;;;;;;4938171;29;24430;-63
2021/08/23 10:01:25;;;;;;;3.88;3.67;;;;;;;;;;4950951;29;24398;-61
2021/08/23 10:03:50;;;;;;;3.30;3.10;;;;;;;;;;4951528;29;24449;-61
2021/08/23 10:06:16;;;;;;;4.00;3.60;;;;;;;;;;4951073;28;24494;-61
2021/08/23 10:08:42;;;;;;;3.90;3.70;;;;;;;;;;4934301;29;24425;-61
2021/08/23 10:11:09;;;;;;;4.10;3.80;;;;;;;;;;4951633;29;24417;-62
2021/08/23 10:13:35;;;;;;;4.10;3.80;;;;;;;;;;4951402;29;24426;-65
2021/08/23 10:16:00;;;;;;;3.60;3.40;;;;;;;;;;4951157;29;25190;-61
2021/08/23 10:18:25;;;;;;;3.90;3.70;;;;;;;;;;4945726;29;24765;-62
2021/08/23 10:20:50;;;;;;;3.80;3.50;;;;;;;;;;4951277;29;24486;-62
2021/08/23 10:23:16;;;;;;;4.10;3.70;;;;;;;;;;4951189;29;24386;-61
2021/08/23 10:25:42;;;;;;;4.40;4.10;;;;;;;;;;4950502;29;24425;-61
2021/08/23 10:28:08;;;;;;;3.10;2.90;;;;;;;;;;4951315;29;24402;-61
2021/08/23 10:30:33;;;;;;;3.40;3.20;;;;;;;;;;4951302;29;24397;-62
2021/08/23 10:33:08;;;;;;;3.10;2.90;;;;;;;;;;4965146;28;24489;-62
2021/08/23 10:35:43;;;;;;;3.40;3.20;;;;;;;;;;4959024;28;24461;-62
2021/08/23 10:38:14;;;;;;;3.10;2.90;;;;;;;;;;4951216;29;25281;-61
2021/08/23 10:40:39;;;;;;;3.25;3.05;;;;;;;;;;4950365;28;24517;-62
2021/08/23 10:43:21;;;;;;;3.03;2.83;;;;;;;;;;4948908;29;24517;-62
2021/08/23 10:45:47;;;;;;;3.10;2.90;;;;;;;;;;4950578;29;24462;-61
2021/08/23 10:48:13;;;;;;;2.90;2.70;;;;;;;;;;4949745;29;24571;-62
2021/08/23 10:50:38;;;;;;;2.90;2.70;;;;;;;;;;4951194;29;24788;-62
2021/08/23 10:53:10;;;;;;;2.80;2.70;;;;;;;;;;4950101;28;24417;-62
2021/08/23 10:55:37;;;;;;;3.23;3.03;;;;;;;;;;4950780;29;24461;-61
2021/08/23 10:58:03;;;;;;;3.00;2.80;;;;;;;;;;4950314;29;24449;-61
2021/08/23 11:00:34;;;;;;;3.40;3.20;;;;;;;;;;4950665;29;24421;-62
2021/08/23 11:02:59;;;;;;;3.22;3.03;;;;;;;;;;4950688;29;24414;-62
2021/08/23 11:05:24;;;;;;;3.37;3.17;;;;;;;;;;4950923;29;24397;-60
2021/08/23 11:07:58;;;;;;;3.27;3.07;;;;;;;;;;4948661;29;24425;-60
2021/08/23 11:10:24;;;;;;;3.40;3.20;;;;;;;;;;4934355;29;24395;-62
2021/08/23 11:12:50;;;;;;;2.80;2.60;;;;;;;;;;4931158;29;24425;-62
2021/08/23 11:15:20;;;;;;;2.60;2.40;;;;;;;;;;4930990;29;24421;-66
2021/08/23 11:17:55;;;;;;;3.00;2.50;;;;;;;;;;4930496;29;24991;-69
2021/08/23 11:20:24;;;;;;;2.10;2.00;;;;;;;;;;4931097;29;24402;-68
2021/08/23 11:22:53;;;;;;;2.60;2.40;;;;;;;;;;4930875;29;24457;-69
2021/08/23 11:25:28;;;;;;;2.90;2.70;;;;;;;;;;4930786;29;24970;-70
2021/08/23 11:27:54;;;;;;;2.97;2.83;;;;;;;;;;4948310;29;24433;-72
2021/08/23 11:30:26;;;;;;;2.75;2.55;;;;;;;;;;4953092;28;24468;-71
2021/08/23 11:32:51;;;;;;;2.83;2.63;;;;;;;;;;4963996;28;24865;-72
2021/08/23 11:35:16;;;;;;;2.80;2.60;;;;;;;;;;4949702;29;24992;-69
2021/08/23 11:37:43;;;;;;;2.80;2.60;;;;;;;;;;4949495;28;24869;-70
2021/08/23 11:40:08;;;;;;;1.90;1.80;;;;;;;;;;4950014;29;24733;-72
2021/08/23 11:42:34;;;;;;;1.50;1.40;;;;;;;;;;4949168;29;24405;-72
2021/08/23 11:44:59;;;;;;;1.40;1.20;;;;;;;;;;4949831;29;24486;-72
2021/08/23 11:47:29;;;;;;;1.60;1.50;;;;;;;;;;4949410;28;24506;-76
2021/08/23 11:49:54;;;;;;;1.73;1.60;;;;;;;;;;4945754;29;24391;-72
2021/08/23 11:52:19;;;;;;;2.50;1.40;;;;;;;;;;4930075;29;24418;-73
2021/08/23 11:54:52;;;;;;;2.00;1.60;;;;;;;;;;4930720;29;24514;-75
2021/08/23 11:57:18;;;;;;;2.17;2.08;;;;;;;;;;4930344;29;24554;-75
2021/08/23 11:59:59;;;;;;;2.97;2.78;;;;;;;;;;4933130;29;24701;-73
2021/08/23 12:02:32;;;;;;;2.80;2.60;;;;;;;;;;4949577;29;24408;-73
2021/08/23 12:05:07;;;;;;;2.90;2.70;;;;;;;;;;4949552;29;25002;-72
2021/08/23 12:07:42;;;;;;;2.87;2.77;;;;;;;;;;4940174;29;24399;-71
2021/08/23 12:10:08;;;;;;;3.00;2.80;;;;;;;;;;4913347;29;25155;-73
2021/08/23 12:12:40;;;;;;;3.40;3.20;;;;;;;;;;4930114;29;24486;-73
2021/08/23 12:15:06;;;;;;;3.53;3.30;;;;;;;;;;4940524;29;24418;-73
2021/08/23 12:17:32;;;;;;;3.00;2.90;;;;;;;;;;4946299;29;24405;-72
2021/08/23 12:20:04;;;;;;;2.30;2.20;;;;;;;;;;4949604;29;24388;-73
2021/08/23 12:22:29;;;;;;;2.70;2.60;;;;;;;;;;4947976;29;24552;-72
2021/08/23 12:24:55;;;;;;;3.50;3.30;;;;;;;;;;4949694;29;25085;-71
2021/08/23 12:27:23;;;;;;;3.23;3.03;;;;;;;;;;4948343;29;24397;-71
2021/08/23 12:29:48;;;;;;;3.70;3.50;;;;;;;;;;4958651;28;24410;-74
2021/08/23 12:32:13;;;;;;;4.50;4.10;;;;;;;;;;4962621;28;24389;-74
2021/08/23 12:34:49;;;;;;;4.40;4.20;;;;;;;;;;4948809;29;24952;-73
2021/08/23 12:37:15;;;;;;;5.40;5.10;;;;;;;;;;4948658;29;24442;-79
2021/08/23 12:39:44;;;;;;;5.35;5.05;;;;;;;;;;4949037;29;24481;-76
2021/08/23 12:42:09;;;;;;;6.30;5.90;;;;;;;;;;4948555;29;24479;-74
2021/08/23 12:44:34;;;;;;;7.33;6.90;;;;;;;;;;4938918;29;24505;-74
2021/08/23 12:46:59;;;;;;;7.70;7.20;;;;;;;;;;4929290;29;25222;-75
2021/08/23 12:49:25;;;;;;;7.90;7.40;;;;;;;;;;4929499;29;24805;-73
2021/08/23 12:51:50;;;;;;;6.90;6.50;;;;;;;;;;4929700;29;24446;-70
2021/08/23 12:54:19;;;;;;;6.78;6.28;;;;;;;;;;4938082;29;24418;-74
2021/08/23 12:56:44;;;;;;;7.40;6.90;;;;;;;;;;4948516;29;24745;-72
2021/08/23 12:59:10;;;;;;;7.80;7.20;;;;;;;;;;4948654;29;24494;-73
2021/08/23 13:01:35;;;;;;;8.10;7.50;;;;;;;;;;4948924;29;24389;-71
2021/08/23 13:04:01;;;;;;;9.07;8.37;;;;;;;;;;4948628;29;24831;-72
2021/08/23 13:06:26;;;;;;;9.63;8.93;;;;;;;;;;4945457;29;24513;-71
2021/08/23 13:08:52;;;;;;;9.73;8.93;;;;;;;;;;4948364;29;24414;-72
2021/08/23 13:11:17;;;;;;;9.60;8.90;;;;;;;;;;4948277;29;24414;-71
2021/08/23 13:13:42;;;;;;;10.80;10.00;;;;;;;;;;4948461;28;24390;-73
2021/08/23 13:16:08;;;;;;;9.20;8.50;;;;;;;;;;4948496;29;24481;-71
2021/08/23 13:18:33;;;;;;;9.50;8.80;;;;;;;;;;4948494;29;24386;-69
2021/08/23 13:20:59;;;;;;;9.13;8.43;;;;;;;;;;4948547;29;24398;-71
2021/08/23 13:23:24;;;;;;;8.03;7.40;;;;;;;;;;4948379;29;24402;-70
2021/08/23 13:25:49;;;;;;;7.63;7.13;;;;;;;;;;4948051;29;24960;-68
2021/08/23 13:28:14;;;;;;;7.77;7.27;;;;;;;;;;4949740;28;25052;-71
2021/08/23 13:30:40;;;;;;;6.40;6.00;;;;;;;;;;4946542;29;24424;-71
2021/08/23 13:33:05;;;;;;;7.50;7.00;;;;;;;;;;4948242;29;24406;-73
2021/08/23 13:35:32;;;;;;;5.47;5.18;;;;;;;;;;4945310;29;24445;-71
2021/08/23 13:37:57;;;;;;;5.40;5.00;;;;;;;;;;4948016;29;24538;-70
2021/08/23 13:40:22;;;;;;;4.83;4.53;;;;;;;;;;4948701;28;24541;-70
2021/08/23 13:42:47;;;;;;;4.45;4.15;;;;;;;;;;4951558;29;24386;-69
2021/08/23 13:45:12;;;;;;;3.90;3.70;;;;;;;;;;4950489;29;24404;-68
2021/08/23 13:47:37;;;;;;;3.67;3.47;;;;;;;;;;4951579;28;24457;-67
2021/08/23 13:50:03;;;;;;;3.20;2.90;;;;;;;;;;4951309;29;24936;-67
2021/08/23 13:52:28;;;;;;;2.70;2.50;;;;;;;;;;4951551;29;25037;-67
2021/08/23 13:54:54;;;;;;;2.50;2.40;;;;;;;;;;4951713;29;24437;-66
2021/08/23 13:57:19;;;;;;;2.50;2.40;;;;;;;;;;4950580;29;25164;-67
2021/08/23 13:59:44;;;;;;;3.33;3.13;;;;;;;;;;4951727;29;24405;-66
2021/08/23 14:02:09;;;;;;;3.10;2.90;;;;;;;;;;4951581;29;24421;-67
2021/08/23 14:04:37;;;;;;;3.80;3.60;;;;;;;;;;4951717;29;25107;-66
2021/08/23 14:07:02;;;;;;;4.43;4.20;;;;;;;;;;4949622;29;24557;-67
2021/08/23 14:09:28;;;;;;;5.00;4.70;;;;;;;;;;4951047;29;24777;-67
2021/08/23 14:11:53;;;;;;;5.30;4.90;;;;;;;;;;4951180;29;24390;-68
2021/08/23 14:14:18;;;;;;;4.90;4.60;;;;;;;;;;4951235;29;24864;-68
2021/08/23 14:16:43;;;;;;;5.20;4.90;;;;;;;;;;4951387;29;24441;-67
2021/08/23 14:19:08;;;;;;;5.30;5.00;;;;;;;;;;4949422;29;24430;-68
2021/08/23 14:21:34;;;;;;;5.40;5.00;;;;;;;;;;4950945;29;25008;-67
2021/08/23 14:23:59;;;;;;;5.35;5.05;;;;;;;;;;4950818;29;24522;-67
2021/08/23 14:26:24;;;;;;;5.55;5.20;;;;;;;;;;4955405;28;24505;-67
2021/08/23 14:28:49;;;;;;;6.50;6.10;;;;;;;;;;4969461;28;24807;-67
2021/08/23 14:31:15;;;;;;;6.88;6.47;;;;;;;;;;4959100;28;24452;-65
2021/08/23 14:33:40;;;;;;;8.10;7.60;;;;;;;;;;4932339;29;24419;-68
2021/08/23 14:36:05;;;;;;;8.60;7.90;;;;;;;;;;4931780;29;24818;-68